15°C
Woerden, The Nederlands
Taal:  Nederlands
Updated27/06/2019 07:05 
 
WeerStation Woerden Historical Data
 
Daily Summary for June 27, 2019 Units:  Metric    English   Both
Daily Weekly Monthly Yearly Custom
  Current: High: Low: Average:
Temperature: 15.2 °C 16.8 °C 14.8 °C 15.8 °C
Dew Point: 11.6 °C 13.6 °C 11.4 °C 12.5 °C
Humidity: 79% 83% 79% 81%
Wind Speed: 20.4km/h 27.8km/h 11.1km/h 19.6km/h
Wind Gust: 16.1km/h 19.5km/h - -
WindNNE - - East
Pressure: 1028.2 hPa 1028.2 hPa 1027.4 hPa -
Precipitation: 0.0 mm      
Historical Graphs
 
 
Tabular Data for June 27, 2019
Time Temperature Dew Point Pressure Wind Wind Speed Wind Gust Humidity Rainfall Rate (Hourly) solar
00:04 16.8 °C 13.6 °C 1027.4 hPa North 20.4 km/h 15.3 km/h 81% 0.0 mm 0.00 W/m2
00:09 16.8 °C 13.6 °C 1027.4 hPa North 22.2 km/h 9.0 km/h 81% 0.0 mm 0.00 W/m2
00:14 16.8 °C 13.6 °C 1027.5 hPa North 17.7 km/h 11.7 km/h 81% 0.0 mm 0.00 W/m2
00:19 16.8 °C 13.5 °C 1027.4 hPa NNE 24.1 km/h 17.5 km/h 81% 0.0 mm 0.00 W/m2
00:24 16.8 °C 13.6 °C 1027.4 hPa NE 22.2 km/h 15.4 km/h 81% 0.0 mm 0.00 W/m2
00:29 16.8 °C 13.5 °C 1027.4 hPa NNW 22.2 km/h 13.7 km/h 81% 0.0 mm 0.00 W/m2
00:34 16.7 °C 13.4 °C 1027.5 hPa NNE 25.9 km/h 14.5 km/h 81% 0.0 mm 0.00 W/m2
00:39 16.7 °C 13.4 °C 1027.5 hPa North 25.9 km/h 14.2 km/h 81% 0.0 mm 0.00 W/m2
00:44 16.7 °C 13.4 °C 1027.5 hPa North 22.5 km/h 15.3 km/h 81% 0.0 mm 0.00 W/m2
00:49 16.7 °C 13.4 °C 1027.5 hPa North 24.1 km/h 17.7 km/h 81% 0.0 mm 0.00 W/m2
00:54 16.6 °C 13.3 °C 1027.6 hPa North 20.4 km/h 14.5 km/h 81% 0.0 mm 0.00 W/m2
00:59 16.7 °C 13.4 °C 1027.5 hPa North 22.2 km/h 13.8 km/h 81% 0.0 mm 0.00 W/m2
01:04 16.6 °C 13.3 °C 1027.6 hPa North 18.5 km/h 14.3 km/h 81% 0.0 mm 0.00 W/m2
01:09 16.6 °C 13.3 °C 1027.7 hPa NNE 22.2 km/h 17.1 km/h 81% 0.0 mm 0.00 W/m2
01:14 16.6 °C 13.3 °C 1027.5 hPa NNE 13.0 km/h 8.0 km/h 81% 0.0 mm 0.00 W/m2
01:19 16.6 °C 13.4 °C 1027.5 hPa North 16.1 km/h 11.3 km/h 82% 0.0 mm 0.00 W/m2
01:24 16.6 °C 13.3 °C 1027.5 hPa North 19.3 km/h 16.7 km/h 81% 0.0 mm 0.00 W/m2
01:29 16.5 °C 13.2 °C 1027.6 hPa NNE 20.4 km/h 16.1 km/h 81% 0.0 mm 0.00 W/m2
01:34 16.6 °C 13.3 °C 1027.6 hPa NNE 22.2 km/h 10.9 km/h 81% 0.0 mm 0.00 W/m2
01:39 16.6 °C 13.3 °C 1027.6 hPa NNE 19.3 km/h 13.5 km/h 81% 0.0 mm 0.00 W/m2
01:44 16.5 °C 13.2 °C 1027.6 hPa North 17.7 km/h 11.9 km/h 81% 0.0 mm 0.00 W/m2
01:49 16.4 °C 13.2 °C 1027.5 hPa NNE 19.3 km/h 17.9 km/h 81% 0.0 mm 0.00 W/m2
01:54 16.4 °C 13.2 °C 1027.6 hPa NNE 18.5 km/h 19.1 km/h 81% 0.0 mm 0.00 W/m2
01:59 16.4 °C 13.1 °C 1027.6 hPa North 22.2 km/h 15.0 km/h 81% 0.0 mm 0.00 W/m2
02:04 16.3 °C 13.1 °C 1027.6 hPa North 18.5 km/h 12.6 km/h 81% 0.0 mm 0.00 W/m2
02:09 16.4 °C 13.1 °C 1027.6 hPa NNW 16.7 km/h 10.8 km/h 81% 0.0 mm 0.00 W/m2
02:14 16.4 °C 13.1 °C 1027.5 hPa North 18.5 km/h 15.3 km/h 81% 0.0 mm 0.00 W/m2
02:19 16.4 °C 13.1 °C 1027.5 hPa NE 20.4 km/h 17.5 km/h 81% 0.0 mm 0.00 W/m2
02:24 16.4 °C 13.1 °C 1027.5 hPa NE 24.1 km/h 15.9 km/h 81% 0.0 mm 0.00 W/m2
02:29 16.3 °C 13.1 °C 1027.5 hPa North 27.8 km/h 19.5 km/h 81% 0.0 mm 0.00 W/m2
02:34 16.3 °C 12.8 °C 1027.4 hPa NNE 18.5 km/h 14.6 km/h 80% 0.0 mm 0.00 W/m2
02:39 16.2 °C 12.8 °C 1027.5 hPa NE 19.3 km/h 12.7 km/h 80% 0.0 mm 0.00 W/m2
02:44 16.2 °C 12.9 °C 1027.5 hPa North 20.4 km/h 14.6 km/h 81% 0.0 mm 0.00 W/m2
02:49 16.2 °C 12.9 °C 1027.5 hPa NE 20.4 km/h 17.7 km/h 81% 0.0 mm 0.00 W/m2
02:54 16.1 °C 12.8 °C 1027.5 hPa North 20.9 km/h 15.9 km/h 81% 0.0 mm 0.00 W/m2
02:59 16.1 °C 12.8 °C 1027.5 hPa NNE 24.1 km/h 17.1 km/h 81% 0.0 mm 0.00 W/m2
03:04 16.1 °C 12.8 °C 1027.6 hPa NNW 18.5 km/h 12.1 km/h 81% 0.0 mm 0.00 W/m2
03:09 16.1 °C 12.8 °C 1027.6 hPa NNE 14.8 km/h 8.4 km/h 81% 0.0 mm 0.00 W/m2
03:14 16.1 °C 12.8 °C 1027.6 hPa North 24.1 km/h 14.5 km/h 81% 0.0 mm 0.00 W/m2
03:19 16.0 °C 12.7 °C 1027.7 hPa NE 22.2 km/h 10.1 km/h 81% 0.0 mm 0.00 W/m2
03:24 15.9 °C 12.7 °C 1027.7 hPa NE 17.7 km/h 12.2 km/h 81% 0.0 mm 0.00 W/m2
03:29 15.9 °C 12.6 °C 1027.8 hPa NNE 18.5 km/h 14.2 km/h 81% 0.0 mm 0.00 W/m2
03:34 15.8 °C 12.5 °C 1027.8 hPa NNW 24.1 km/h 15.3 km/h 81% 0.0 mm 0.00 W/m2
03:39 15.6 °C 12.3 °C 1027.8 hPa NNE 18.5 km/h 11.4 km/h 81% 0.0 mm 0.00 W/m2
03:44 15.6 °C 12.3 °C 1027.9 hPa NNE 18.5 km/h 13.0 km/h 81% 0.0 mm 0.00 W/m2
03:49 15.6 °C 12.3 °C 1027.9 hPa NNE 18.5 km/h 10.8 km/h 81% 0.0 mm 0.00 W/m2
03:54 15.6 °C 12.3 °C 1027.9 hPa NNE 16.7 km/h 7.4 km/h 81% 0.0 mm 0.00 W/m2
03:59 15.6 °C 12.3 °C 1027.8 hPa NNE 20.4 km/h 13.2 km/h 81% 0.0 mm 0.00 W/m2
04:04 15.6 °C 12.3 °C 1027.8 hPa North 16.7 km/h 9.8 km/h 81% 0.0 mm 0.00 W/m2
04:09 15.5 °C 12.3 °C 1027.9 hPa NNE 14.8 km/h 9.3 km/h 81% 0.0 mm 0.00 W/m2
04:14 15.4 °C 12.2 °C 1027.9 hPa NNE 22.5 km/h 12.4 km/h 81% 0.0 mm 0.00 W/m2
04:19 15.4 °C 12.2 °C 1027.8 hPa NE 16.7 km/h 11.9 km/h 81% 0.0 mm 0.00 W/m2
04:24 15.4 °C 12.2 °C 1027.8 hPa NNE 20.4 km/h 17.5 km/h 81% 0.0 mm 0.00 W/m2
04:29 15.3 °C 12.1 °C 1027.9 hPa NNE 20.4 km/h 14.0 km/h 81% 0.0 mm 0.00 W/m2
04:34 15.3 °C 11.8 °C 1027.9 hPa NE 22.2 km/h 16.6 km/h 80% 0.0 mm 0.00 W/m2
04:39 15.3 °C 12.1 °C 1027.9 hPa NNE 22.5 km/h 12.9 km/h 81% 0.0 mm 0.00 W/m2
04:44 15.3 °C 12.1 °C 1028.1 hPa NNE 18.5 km/h 11.7 km/h 81% 0.0 mm 0.00 W/m2
04:49 15.3 °C 12.1 °C 1028.1 hPa NNE 16.7 km/h 10.5 km/h 81% 0.0 mm 0.00 W/m2
04:54 15.3 °C 12.1 °C 1028.1 hPa NNE 16.7 km/h 10.1 km/h 81% 0.0 mm 0.00 W/m2
04:59 15.3 °C 12.1 °C 1028.1 hPa NNW 11.1 km/h 8.4 km/h 81% 0.0 mm 0.00 W/m2
05:04 15.3 °C 12.1 °C 1028.1 hPa NNE 18.5 km/h 10.8 km/h 81% 0.0 mm 0.00 W/m2
05:09 15.3 °C 12.1 °C 1028.1 hPa NE 14.8 km/h 11.9 km/h 81% 0.0 mm 0.00 W/m2
05:14 15.3 °C 12.1 °C 1028.1 hPa NE 20.4 km/h 15.6 km/h 81% 0.0 mm 0.00 W/m2
05:19 15.2 °C 11.9 °C 1028.1 hPa NNE 16.7 km/h 8.4 km/h 81% 0.0 mm 0.00 W/m2
05:24 15.1 °C 11.9 °C 1028.0 hPa NNW 18.5 km/h 12.9 km/h 81% 0.0 mm 0.00 W/m2
05:29 15.1 °C 11.8 °C 1028.0 hPa NE 19.3 km/h 14.8 km/h 81% 0.0 mm 0.00 W/m2
05:34 15.0 °C 11.8 °C 1028.0 hPa NNE 18.5 km/h 10.3 km/h 81% 0.0 mm 5.00 W/m2
05:39 14.9 °C 11.7 °C 1028.0 hPa NNE 18.5 km/h 12.6 km/h 81% 0.0 mm 9.00 W/m2
05:44 14.9 °C 11.7 °C 1028.0 hPa NE 18.5 km/h 10.8 km/h 81% 0.0 mm 9.00 W/m2
05:49 14.9 °C 11.7 °C 1028.0 hPa NE 18.5 km/h 12.7 km/h 81% 0.0 mm 14.00 W/m2
05:54 15.0 °C 11.8 °C 1028.0 hPa NNE 18.5 km/h 9.5 km/h 81% 0.0 mm 19.00 W/m2
05:59 15.0 °C 12.1 °C 1028.0 hPa NE 18.5 km/h 7.7 km/h 83% 0.0 mm 28.00 W/m2
06:04 14.9 °C 11.4 °C 1028.0 hPa NNE 20.9 km/h 13.2 km/h 80% 0.0 mm 30.00 W/m2
06:09 14.8 °C 11.4 °C 1028.0 hPa North 24.1 km/h 11.7 km/h 80% 0.0 mm 33.00 W/m2
06:14 14.8 °C 11.4 °C 1028.0 hPa NE 16.7 km/h 12.6 km/h 80% 0.0 mm 51.00 W/m2
06:19 14.9 °C 11.4 °C 1028.0 hPa NNE 20.4 km/h 15.1 km/h 80% 0.0 mm 69.00 W/m2
06:24 14.9 °C 11.4 °C 1028.0 hPa NNE 18.5 km/h 13.8 km/h 80% 0.0 mm 47.00 W/m2
06:29 14.9 °C 11.4 °C 1028.1 hPa NNE 18.5 km/h 14.6 km/h 80% 0.0 mm 91.00 W/m2
06:34 15.0 °C 11.6 °C 1028.0 hPa NE 20.4 km/h 11.6 km/h 80% 0.0 mm 98.00 W/m2
06:39 15.1 °C 11.6 °C 1028.1 hPa NNE 16.7 km/h 13.2 km/h 80% 0.0 mm 97.00 W/m2
06:44 15.0 °C 11.6 °C 1028.1 hPa NE 20.4 km/h 14.2 km/h 80% 0.0 mm 105.00 W/m2
06:49 15.1 °C 11.6 °C 1028.2 hPa NNE 18.5 km/h 14.3 km/h 80% 0.0 mm 116.00 W/m2
06:54 15.1 °C 11.7 °C 1028.2 hPa NNE 16.7 km/h 10.3 km/h 80% 0.0 mm 156.00 W/m2
06:59 15.2 °C 11.6 °C 1028.2 hPa NE 14.8 km/h 11.6 km/h 79% 0.0 mm 156.00 W/m2
07:04 15.2 °C 11.6 °C 1028.2 hPa NNE 20.4 km/h 16.1 km/h 79% 0.0 mm 160.00 W/m2
Juneau County Weather
Compliments of Weather Underground - 1.75 mb